Time;durP1;ratioP1;P1;durP2;ratioP2;P2;SDS_P1;SDS_P2;PMS_P1;PMS_P2;Temp;Humidity;BMP_temperature;BMP_pressure;BME280_temperature;BME280_humidity;BME280_pressure;Samples;Min_cycle;Max_cycle;Signal;HPM_P1;HPM_P2
2021/11/17 02:40:43;;;;;;;11.35;6.72;;;6.20;99.90;;;;;;6016235;22;20206;-81
2021/11/17 02:43:32;;;;;;;10.90;6.53;;;6.30;99.90;;;;;;6223033;23;20169;-81
2021/11/17 02:46:11;;;;;;;10.07;7.03;;;6.50;99.90;;;;;;6223568;23;20188;-81
2021/11/17 02:48:54;;;;;;;12.32;7.40;;;6.40;99.90;;;;;;6223654;23;20162;-82
2021/11/17 02:51:40;;;;;;;9.05;6.13;;;6.30;99.90;;;;;;6194146;23;20167;-81
2021/11/17 02:54:32;;;;;;;10.30;7.35;;;6.40;99.90;;;;;;6193509;23;20177;-82
2021/11/17 02:57:16;;;;;;;8.75;7.85;;;6.40;99.90;;;;;;6193828;23;20166;-82
2021/11/17 03:00:08;;;;;;;7.38;5.82;;;6.20;99.90;;;;;;6192746;23;20202;-81
2021/11/17 03:03:13;;;;;;;8.30;7.47;;;6.30;99.90;;;;;;6193025;23;20174;-81
2021/11/17 03:05:55;;;;;;;9.77;8.02;;;6.20;99.90;;;;;;6162546;23;20204;-83
2021/11/17 03:08:47;;;;;;;8.88;7.97;;;6.00;99.90;;;;;;6193301;23;20178;-82
2021/11/17 03:11:32;;;;;;;7.85;6.18;;;6.00;99.90;;;;;;6193772;23;20182;-83
2021/11/17 03:14:22;;;;;;;10.07;7.80;;;5.90;99.90;;;;;;6192750;23;20172;-82
2021/11/17 03:17:15;;;;;;;12.63;8.50;;;5.60;99.90;;;;;;6193848;23;20171;-82
2021/11/17 03:19:54;;;;;;;9.38;6.63;;;5.40;99.90;;;;;;6193231;23;20886;-82
2021/11/17 03:22:36;;;;;;;10.75;7.78;;;5.30;99.90;;;;;;6192945;23;20167;-82
2021/11/17 03:25:18;;;;;;;12.18;7.82;;;5.30;99.90;;;;;;6193536;23;20169;-82
2021/11/17 03:27:57;;;;;;;9.73;7.25;;;5.30;99.90;;;;;;6194066;23;20163;-82
2021/11/17 03:30:39;;;;;;;11.15;8.30;;;5.20;99.90;;;;;;6193530;23;20202;-82
2021/11/17 03:33:38;;;;;;;8.23;7.38;;;5.30;99.90;;;;;;6192474;23;20173;-81
2021/11/17 03:36:25;;;;;;;10.32;7.13;;;5.40;99.90;;;;;;6193407;23;20167;-81
2021/11/17 03:39:21;;;;;;;11.05;8.48;;;5.40;99.90;;;;;;6193010;23;20162;-82
2021/11/17 03:42:07;;;;;;;9.80;7.68;;;5.30;99.90;;;;;;6194046;23;20173;-81
2021/11/17 03:44:53;;;;;;;9.93;6.53;;;5.20;99.90;;;;;;6194003;23;20167;-82
2021/11/17 03:47:33;;;;;;;9.32;8.23;;;5.20;99.90;;;;;;6193774;23;20486;-82
2021/11/17 03:50:18;;;;;;;12.88;9.13;;;5.20;99.90;;;;;;6193929;23;20209;-81
2021/11/17 03:53:01;;;;;;;12.27;8.80;;;5.20;99.90;;;;;;6193557;23;20163;-82
2021/11/17 03:55:42;;;;;;;12.52;8.80;;;5.30;99.90;;;;;;6194920;23;20167;-82
2021/11/17 03:58:20;;;;;;;12.00;8.32;;;5.30;99.90;;;;;;6194524;23;20522;-83
2021/11/17 04:01:00;;;;;;;12.15;8.38;;;5.40;99.90;;;;;;6194112;23;20566;-81
2021/11/17 04:03:42;;;;;;;9.07;7.97;;;5.40;99.90;;;;;;6193745;23;20177;-81
2021/11/17 04:06:21;;;;;;;8.73;7.85;;;5.60;99.90;;;;;;6194013;23;20166;-81
2021/11/17 04:09:04;;;;;;;14.25;9.18;;;5.60;99.90;;;;;;6193148;23;20193;-82
2021/11/17 04:11:43;;;;;;;11.30;7.95;;;5.70;99.90;;;;;;6193038;23;20177;-81
2021/11/17 04:14:22;;;;;;;10.65;7.57;;;5.70;99.90;;;;;;6192276;23;20165;-82
2021/11/17 04:17:01;;;;;;;8.10;7.30;;;5.70;99.90;;;;;;6193561;23;20173;-81
2021/11/17 04:19:45;;;;;;;12.45;8.75;;;5.80;99.90;;;;;;6192933;23;20198;-81
2021/11/17 04:22:38;;;;;;;10.20;7.80;;;5.90;99.90;;;;;;6193159;23;20496;-81
2021/11/17 04:25:25;;;;;;;9.45;7.60;;;6.00;99.90;;;;;;6193401;23;20185;-82
2021/11/17 04:28:05;;;;;;;13.77;9.77;;;5.80;99.90;;;;;;6193241;23;20178;-82
2021/11/17 04:31:03;;;;;;;9.10;6.30;;;6.00;99.90;;;;;;6193874;23;20206;-82
2021/11/17 04:33:53;;;;;;;9.88;7.07;;;5.90;99.90;;;;;;6193304;23;20167;-83
2021/11/17 04:36:53;;;;;;;9.15;6.43;;;5.90;99.90;;;;;;6193629;23;20178;-81
2021/11/17 04:39:45;;;;;;;10.73;6.63;;;6.00;99.90;;;;;;6193640;23;20233;-82
2021/11/17 04:42:34;;;;;;;10.00;8.48;;;6.00;99.90;;;;;;6185015;23;20186;-81
2021/11/17 04:45:14;;;;;;;9.55;7.65;;;6.00;99.90;;;;;;6193809;23;20162;-83
2021/11/17 04:47:54;;;;;;;9.82;7.20;;;6.10;99.90;;;;;;6193341;23;20170;-82
2021/11/17 04:50:39;;;;;;;10.77;7.10;;;6.10;99.90;;;;;;6192865;23;20209;-81
2021/11/17 04:53:21;;;;;;;7.03;6.30;;;6.20;99.90;;;;;;6193946;23;20166;-82
2021/11/17 04:56:00;;;;;;;11.52;7.88;;;6.20;99.90;;;;;;6193569;23;20163;-81
2021/11/17 04:58:40;;;;;;;9.70;6.97;;;6.20;99.90;;;;;;6194542;23;20597;-83
2021/11/17 05:01:29;;;;;;;8.35;6.20;;;6.20;99.90;;;;;;6194189;23;20209;-83
2021/11/17 05:04:09;;;;;;;9.82;6.78;;;6.10;99.90;;;;;;6193574;23;20594;-82
2021/11/17 05:06:51;;;;;;;6.82;6.13;;;6.20;99.90;;;;;;6193513;23;20166;-82
2021/11/17 05:09:28;;;;;;;10.73;9.30;;;6.20;99.90;;;;;;6194253;23;20519;-82
2021/11/17 05:12:07;;;;;;;10.27;7.82;;;6.20;99.90;;;;;;6193138;23;20173;-82
2021/11/17 05:14:41;;;;;;;10.00;7.05;;;6.10;99.90;;;;;;6193649;23;20162;-81
2021/11/17 05:17:19;;;;;;;6.82;6.13;;;6.10;99.90;;;;;;6193222;23;20172;-81
2021/11/17 05:19:54;;;;;;;6.68;5.75;;;6.10;99.90;;;;;;6194100;23;20261;-83
2021/11/17 05:22:39;;;;;;;7.88;7.07;;;6.00;99.90;;;;;;6194145;23;20268;-81
2021/11/17 05:25:29;;;;;;;12.00;7.50;;;6.20;99.90;;;;;;6193977;23;20163;-82
2021/11/17 05:28:15;;;;;;;7.25;6.55;;;6.20;99.90;;;;;;6192397;23;20564;-82
2021/11/17 05:31:04;;;;;;;7.50;6.55;;;6.00;99.90;;;;;;6193400;23;20210;-83
2021/11/17 05:33:45;;;;;;;10.23;7.07;;;6.20;99.90;;;;;;6193466;23;20163;-81
2021/11/17 05:36:22;;;;;;;7.63;6.07;;;6.20;99.90;;;;;;6193414;23;20166;-82
2021/11/17 05:39:03;;;;;;;9.45;6.30;;;6.30;99.90;;;;;;6193204;23;20166;-81
2021/11/17 05:41:44;;;;;;;7.80;7.10;;;6.40;99.90;;;;;;6193268;23;20169;-82
2021/11/17 05:44:24;;;;;;;7.63;6.07;;;6.30;99.90;;;;;;6192969;23;20170;-81
2021/11/17 05:47:03;;;;;;;6.72;5.90;;;6.40;99.90;;;;;;6193869;23;20166;-82
2021/11/17 05:49:41;;;;;;;9.40;7.25;;;6.40;99.90;;;;;;6193150;23;20232;-83
2021/11/17 05:52:21;;;;;;;8.15;6.63;;;6.40;99.90;;;;;;6193287;23;20163;-82
2021/11/17 05:55:18;;;;;;;10.45;8.27;;;6.10;99.90;;;;;;6193683;23;20174;-81
2021/11/17 05:57:59;;;;;;;9.10;7.05;;;6.00;99.90;;;;;;6177490;23;20672;-81
2021/11/17 06:01:05;;;;;;;9.75;6.60;;;6.00;99.90;;;;;;6195048;23;20514;-82
2021/11/17 06:03:43;;;;;;;9.20;7.50;;;6.00;99.90;;;;;;6192845;23;20182;-82
2021/11/17 06:06:10;;;;;;;10.57;7.13;;;5.80;99.90;;;;;;6196063;23;20173;-82
2021/11/17 06:08:36;;;;;;;9.80;6.60;;;5.90;99.90;;;;;;6195934;23;20182;-82
2021/11/17 06:11:05;;;;;;;11.50;8.30;;;6.00;99.90;;;;;;6195185;23;20689;-82
2021/11/17 06:13:33;;;;;;;8.02;6.45;;;5.80;99.90;;;;;;6195627;23;20190;-82
2021/11/17 06:16:01;;;;;;;10.85;7.82;;;5.90;99.90;;;;;;6194312;23;20178;-82
2021/11/17 06:18:31;;;;;;;8.40;7.05;;;5.90;99.90;;;;;;6206519;23;20186;-81
2021/11/17 06:20:59;;;;;;;8.77;6.85;;;5.90;99.90;;;;;;6209632;23;20198;-84
2021/11/17 06:23:29;;;;;;;11.43;8.32;;;5.90;99.90;;;;;;6203551;23;20178;-83
2021/11/17 06:25:57;;;;;;;11.80;6.85;;;5.90;99.90;;;;;;6205551;23;20226;-84
2021/11/17 06:28:28;;;;;;;8.45;6.45;;;6.10;99.90;;;;;;6198508;23;20178;-81
2021/11/17 06:30:58;;;;;;;10.30;8.80;;;6.20;99.90;;;;;;6202497;23;20210;-80
2021/11/17 06:33:25;;;;;;;7.10;5.60;;;6.20;99.90;;;;;;6203755;23;20237;-81
2021/11/17 06:35:52;;;;;;;7.22;5.68;;;6.30;99.90;;;;;;6197056;23;20185;-81
2021/11/17 06:38:19;;;;;;;7.40;6.70;;;6.20;99.90;;;;;;6196994;23;20298;-81
2021/11/17 06:40:48;;;;;;;8.40;7.00;;;6.20;99.90;;;;;;6201750;23;20206;-81
2021/11/17 06:43:16;;;;;;;10.48;7.10;;;6.20;99.90;;;;;;6202308;23;20692;-80
2021/11/17 06:45:47;;;;;;;12.80;6.70;;;6.10;99.90;;;;;;6203234;23;20190;-80
2021/11/17 06:48:15;;;;;;;9.40;6.65;;;5.90;99.90;;;;;;6203077;23;20167;-84
2021/11/17 06:50:45;;;;;;;8.93;6.57;;;5.80;99.90;;;;;;6195646;23;20230;-83
2021/11/17 06:53:15;;;;;;;8.23;5.65;;;5.70;99.90;;;;;;6195873;23;20188;-81
2021/11/17 06:55:42;;;;;;;11.20;7.10;;;5.50;99.90;;;;;;6195941;23;20541;-81
2021/11/17 06:58:09;;;;;;;9.30;5.95;;;5.50;99.90;;;;;;6196262;23;20184;-80
2021/11/17 07:00:39;;;;;;;7.68;5.68;;;5.40;99.90;;;;;;6195293;23;20222;-84
2021/11/17 07:03:09;;;;;;;8.63;6.07;;;5.40;99.90;;;;;;6194965;23;20799;-81
2021/11/17 07:05:36;;;;;;;8.15;6.55;;;5.50;99.90;;;;;;6194815;23;20167;-81
2021/11/17 07:08:04;;;;;;;8.80;7.43;;;5.60;99.90;;;;;;6193045;23;20175;-81
2021/11/17 07:10:33;;;;;;;10.15;7.13;;;5.80;99.90;;;;;;6192211;23;20533;-81
2021/11/17 07:13:01;;;;;;;9.98;6.97;;;6.00;99.90;;;;;;6191488;23;20175;-83
2021/11/17 07:15:29;;;;;;;10.75;7.10;;;6.00;99.90;;;;;;6191452;23;20189;-81
2021/11/17 07:17:56;;;;;;;9.63;7.55;;;6.10;99.90;;;;;;6193417;23;20494;-81
2021/11/17 07:20:25;;;;;;;10.98;8.00;;;6.10;99.90;;;;;;6193752;23;20277;-82
2021/11/17 07:22:52;;;;;;;11.75;7.53;;;6.10;99.90;;;;;;6191147;23;20638;-81
2021/11/17 07:25:24;;;;;;;10.55;7.95;;;6.10;99.90;;;;;;6191180;23;20185;-81
2021/11/17 07:27:52;;;;;;;9.75;7.60;;;5.90;99.90;;;;;;6193005;23;20167;-82
2021/11/17 07:30:23;;;;;;;11.70;8.35;;;5.70;99.90;;;;;;6195014;23;20281;-82
2021/11/17 07:32:51;;;;;;;9.32;7.50;;;5.70;99.90;;;;;;6194551;23;20262;-82
2021/11/17 07:35:20;;;;;;;8.32;7.43;;;5.80;99.90;;;;;;6195656;23;20573;-81
2021/11/17 07:37:48;;;;;;;9.60;8.25;;;5.90;99.90;;;;;;6192985;23;20179;-81
2021/11/17 07:40:15;;;;;;;12.70;7.82;;;5.90;99.90;;;;;;6194005;23;20206;-82
2021/11/17 07:42:43;;;;;;;15.93;8.93;;;5.90;99.90;;;;;;6193819;23;20630;-80
2021/11/17 07:45:12;;;;;;;11.20;7.60;;;5.70;99.90;;;;;;6190931;23;20178;-80
2021/11/17 07:47:39;;;;;;;14.38;7.30;;;5.70;99.90;;;;;;6191557;23;20182;-80
2021/11/17 07:50:09;;;;;;;10.68;8.50;;;5.80;99.90;;;;;;6189773;23;20205;-81
2021/11/17 07:52:40;;;;;;;12.43;8.45;;;5.90;99.90;;;;;;6190201;23;20676;-81
2021/11/17 07:55:10;;;;;;;10.35;7.32;;;5.90;99.90;;;;;;6190597;23;20534;-81
2021/11/17 07:57:39;;;;;;;12.18;7.82;;;6.10;99.90;;;;;;6189999;23;20229;-80
2021/11/17 08:00:13;;;;;;;11.20;7.72;;;6.10;99.90;;;;;;6188211;23;20206;-81
2021/11/17 08:02:40;;;;;;;10.05;6.93;;;6.20;99.90;;;;;;6188078;23;20166;-81
2021/11/17 08:05:09;;;;;;;9.40;8.30;;;6.00;99.90;;;;;;6187724;23;20179;-81
2021/11/17 08:07:42;;;;;;;7.28;5.93;;;5.70;99.90;;;;;;6188338;23;20183;-81
2021/11/17 08:10:13;;;;;;;7.32;6.38;;;5.60;99.90;;;;;;6185497;23;20210;-81
2021/11/17 08:12:39;;;;;;;10.68;7.07;;;5.30;99.90;;;;;;6186657;23;20211;-80
2021/11/17 08:15:09;;;;;;;10.93;7.18;;;5.20;99.90;;;;;;6189231;23;20187;-81
2021/11/17 08:17:40;;;;;;;9.05;7.18;;;5.10;99.90;;;;;;6189686;23;20253;-82
2021/11/17 08:20:13;;;;;;;12.88;7.35;;;5.10;99.90;;;;;;6188629;23;20208;-81
2021/11/17 08:22:40;;;;;;;10.38;8.10;;;5.10;99.90;;;;;;6189519;23;20174;-81
2021/11/17 08:25:12;;;;;;;7.85;6.05;;;5.10;99.90;;;;;;6190309;23;20186;-80
2021/11/17 08:27:39;;;;;;;16.55;6.60;;;5.10;99.90;;;;;;6186895;23;20163;-81
2021/11/17 08:30:09;;;;;;;9.48;6.95;;;5.10;99.90;;;;;;6185814;23;20198;-80
2021/11/17 08:32:36;;;;;;;13.18;9.43;;;5.00;99.90;;;;;;6185769;23;20182;-81
2021/11/17 08:35:03;;;;;;;7.30;5.70;;;5.10;99.90;;;;;;6188946;23;20182;-80
2021/11/17 08:37:31;;;;;;;9.32;6.38;;;5.10;99.90;;;;;;6184619;23;20178;-78
2021/11/17 08:39:58;;;;;;;8.75;5.18;;;5.10;99.90;;;;;;6194618;22;20283;-85
2021/11/17 08:42:26;;;;;;;7.90;5.00;;;5.20;99.90;;;;;;6221924;23;20174;-83
2021/11/17 08:44:54;;;;;;;6.50;4.63;;;5.10;99.90;;;;;;6223216;23;20200;-83
2021/11/17 08:47:21;;;;;;;8.57;5.72;;;5.10;99.90;;;;;;6222842;23;20216;-85
2021/11/17 08:49:48;;;;;;;5.70;5.20;;;5.20;99.90;;;;;;6222240;23;20726;-85
2021/11/17 08:52:15;;;;;;;11.95;5.82;;;5.30;99.90;;;;;;6222950;23;20295;-83
2021/11/17 08:54:42;;;;;;;7.35;4.78;;;5.40;99.90;;;;;;6223756;23;20236;-85
2021/11/17 08:57:11;;;;;;;10.52;5.50;;;5.30;99.90;;;;;;6222761;23;20185;-83
2021/11/17 08:59:39;;;;;;;12.00;6.13;;;5.30;99.90;;;;;;6223251;23;20231;-85
2021/11/17 09:02:07;;;;;;;12.75;7.18;;;5.50;99.90;;;;;;6222743;23;20173;-85
2021/11/17 09:04:34;;;;;;;8.88;5.85;;;5.60;99.90;;;;;;6222678;23;20200;-85
2021/11/17 09:07:01;;;;;;;5.05;4.55;;;5.70;99.90;;;;;;6222691;23;20182;-85
2021/11/17 09:09:28;;;;;;;4.95;4.45;;;5.80;99.90;;;;;;6223041;23;20182;-83
2021/11/17 09:11:54;;;;;;;5.38;3.90;;;5.90;99.90;;;;;;6222712;23;20202;-85
2021/11/17 09:14:21;;;;;;;8.25;4.97;;;5.80;99.90;;;;;;6222939;23;20184;-85
2021/11/17 09:16:50;;;;;;;4.88;3.95;;;5.80;99.90;;;;;;6222168;23;20750;-85
2021/11/17 09:19:17;;;;;;;4.60;4.20;;;5.70;99.90;;;;;;6223725;23;20518;-85
2021/11/17 09:21:46;;;;;;;6.20;5.25;;;5.70;99.90;;;;;;6226001;23;20181;-84
2021/11/17 09:24:15;;;;;;;4.30;3.90;;;5.70;99.90;;;;;;6226140;23;20182;-85
2021/11/17 09:26:44;;;;;;;4.50;4.10;;;5.70;99.90;;;;;;6223978;23;20197;-84
2021/11/17 09:29:11;;;;;;;5.15;3.53;;;5.60;99.90;;;;;;6222928;23;20260;-84
2021/11/17 09:31:41;;;;;;;5.25;4.18;;;5.40;99.90;;;;;;6223281;23;20194;-85
2021/11/17 09:34:10;;;;;;;5.15;4.60;;;5.30;99.90;;;;;;6222814;23;20182;-82
2021/11/17 09:36:38;;;;;;;4.38;3.72;;;5.30;99.90;;;;;;6225839;23;20177;-85
2021/11/17 09:39:06;;;;;;;4.18;3.13;;;5.30;99.90;;;;;;6225316;23;20177;-85
2021/11/17 09:41:36;;;;;;;3.45;3.15;;;5.20;99.90;;;;;;6225259;23;20224;-85
2021/11/17 09:44:06;;;;;;;3.75;2.65;;;5.20;99.90;;;;;;6226406;23;20263;-85
2021/11/17 09:46:37;;;;;;;3.95;2.90;;;5.10;99.90;;;;;;6225354;23;20158;-85
2021/11/17 09:49:09;;;;;;;2.92;2.72;;;5.00;99.90;;;;;;6225819;23;20162;-85
2021/11/17 09:51:50;;;;;;;2.35;2.15;;;4.90;99.90;;;;;;6225366;23;20207;-85
2021/11/17 09:54:24;;;;;;;3.10;2.20;;;4.80;99.90;;;;;;6241559;23;20153;-81
2021/11/17 09:56:55;;;;;;;2.10;2.00;;;4.80;99.90;;;;;;6242493;23;20166;-81
2021/11/17 09:59:25;;;;;;;3.95;3.05;;;4.80;99.90;;;;;;6242858;23;20166;-80
2021/11/17 10:01:56;;;;;;;3.15;2.47;;;4.80;99.90;;;;;;6240548;23;20176;-80
2021/11/17 10:04:27;;;;;;;4.97;3.50;;;4.70;99.90;;;;;;6242574;23;20214;-81
2021/11/17 10:13:22;;;;;;;2.80;2.60;;;4.60;99.90;;;;;;6223298;23;20193;-84
2021/11/17 10:43:20;;;;;;;2.97;2.72;;;5.00;99.90;;;;;;6162044;23;20197;-84
2021/11/17 10:45:50;;;;;;;4.25;3.20;;;5.00;99.90;;;;;;6167786;23;20187;-85
2021/11/17 10:48:21;;;;;;;3.30;3.00;;;5.10;99.90;;;;;;6225669;23;20173;-85
2021/11/17 10:50:47;;;;;;;2.92;2.70;;;5.30;99.90;;;;;;6225315;23;20202;-85
2021/11/17 10:53:27;;;;;;;2.95;2.75;;;5.30;99.90;;;;;;6224750;23;20233;-85
2021/11/17 10:55:55;;;;;;;4.10;3.58;;;5.40;99.90;;;;;;6224761;23;20161;-82
2021/11/17 10:58:26;;;;;;;4.13;2.47;;;5.50;99.90;;;;;;6224993;23;20184;-85
2021/11/17 11:00:55;;;;;;;3.58;3.15;;;5.50;99.90;;;;;;6225354;23;20198;-85
2021/11/17 11:03:24;;;;;;;3.47;3.17;;;5.50;99.90;;;;;;6224677;23;20178;-85
2021/11/17 11:05:58;;;;;;;4.65;3.70;;;5.60;99.90;;;;;;6224384;23;20199;-85
2021/11/17 11:08:29;;;;;;;2.55;2.35;;;5.80;99.90;;;;;;6225525;23;20169;-85
2021/11/17 11:11:00;;;;;;;4.50;2.65;;;5.80;99.90;;;;;;6224986;23;20223;-83
2021/11/17 11:13:32;;;;;;;3.55;2.83;;;5.90;99.90;;;;;;6224273;23;20168;-83
2021/11/17 11:16:02;;;;;;;3.88;2.85;;;5.90;99.90;;;;;;6225058;23;20162;-84
2021/11/17 11:18:46;;;;;;;3.03;2.38;;;6.10;99.90;;;;;;6225381;23;20162;-83
2021/11/17 11:21:15;;;;;;;2.70;2.50;;;6.10;99.90;;;;;;6224409;23;20200;-83
2021/11/17 11:24:14;;;;;;;2.40;2.20;;;6.20;99.90;;;;;;6223369;23;20668;-85
2021/11/17 11:27:15;;;;;;;2.20;2.00;;;6.20;99.90;;;;;;6224316;23;20186;-85
2021/11/17 11:29:45;;;;;;;2.15;1.98;;;6.10;99.90;;;;;;6219713;23;20205;-84
2021/11/17 11:32:46;;;;;;;1.92;1.77;;;5.90;99.90;;;;;;6223776;23;20188;-85
2021/11/17 11:35:20;;;;;;;1.90;1.80;;;5.80;99.90;;;;;;6224626;23;20166;-85
2021/11/17 11:38:31;;;;;;;1.30;1.20;;;5.70;99.90;;;;;;6224095;23;20162;-83
2021/11/17 11:41:13;;;;;;;3.35;2.72;;;5.80;99.90;;;;;;6224528;23;20200;-83
2021/11/17 11:43:42;;;;;;;2.08;1.98;;;5.70;99.90;;;;;;6224092;23;20540;-84
2021/11/17 11:46:37;;;;;;;1.92;1.77;;;5.60;99.90;;;;;;6223475;23;20190;-85
2021/11/17 11:49:10;;;;;;;1.67;1.58;;;5.50;99.90;;;;;;6154405;23;20192;-84
2021/11/17 11:52:04;;;;;;;1.95;1.85;;;5.50;99.90;;;;;;6223613;23;20182;-83
2021/11/17 11:54:35;;;;;;;3.13;1.65;;;5.60;99.90;;;;;;6224172;23;20173;-85
2021/11/17 11:57:26;;;;;;;2.13;1.30;;;5.60;99.90;;;;;;6223771;23;20493;-84
2021/11/17 12:00:22;;;;;;;1.60;1.50;;;5.80;99.90;;;;;;6224316;23;20212;-85
2021/11/17 12:02:53;;;;;;;2.45;1.50;;;5.70;99.90;;;;;;6223345;23;20177;-84
2021/11/17 12:05:33;;;;;;;2.45;1.40;;;5.70;99.90;;;;;;6224609;23;20166;-83
2021/11/17 12:08:08;;;;;;;1.90;1.80;;;5.70;99.90;;;;;;6223626;23;20162;-83
2021/11/17 12:10:39;;;;;;;1.70;1.60;;;5.70;99.90;;;;;;6224931;23;20201;-85
2021/11/17 12:13:13;;;;;;;2.08;1.85;;;5.60;99.90;;;;;;6223374;23;20270;-85
2021/11/17 12:15:54;;;;;;;1.50;1.40;;;5.40;99.90;;;;;;6223191;23;20187;-84
2021/11/17 12:18:23;;;;;;;2.95;2.22;;;5.40;99.90;;;;;;6224878;23;20161;-84
2021/11/17 12:21:04;;;;;;;2.35;2.15;;;5.40;99.90;;;;;;6224053;23;20233;-85
2021/11/17 12:23:33;;;;;;;3.53;2.53;;;5.40;99.90;;;;;;6224071;23;20158;-84
2021/11/17 12:26:07;;;;;;;2.45;2.25;;;5.40;99.90;;;;;;6223946;23;20192;-85
2021/11/17 12:28:43;;;;;;;2.10;2.00;;;5.40;99.90;;;;;;6224036;23;20165;-83
2021/11/17 12:31:14;;;;;;;2.38;2.17;;;5.40;99.90;;;;;;6223954;23;20197;-85
2021/11/17 12:33:47;;;;;;;2.20;2.10;;;5.40;99.90;;;;;;6223926;23;20162;-85
2021/11/17 12:36:20;;;;;;;2.40;2.20;;;5.40;99.90;;;;;;6224490;23;20245;-85
2021/11/17 12:38:48;;;;;;;2.05;1.70;;;5.30;99.90;;;;;;6223597;23;20172;-85
2021/11/17 12:41:20;;;;;;;2.70;2.45;;;5.20;99.90;;;;;;6224021;23;20200;-85
2021/11/17 12:43:58;;;;;;;5.50;2.35;;;5.20;99.90;;;;;;6223799;23;20162;-83
2021/11/17 12:46:29;;;;;;;2.70;2.45;;;5.20;99.90;;;;;;6223671;23;20201;-84
2021/11/17 12:49:13;;;;;;;3.40;3.00;;;5.30;99.90;;;;;;6226162;23;20162;-84
2021/11/17 12:51:46;;;;;;;2.20;2.08;;;5.20;99.90;;;;;;6227428;23;20245;-85
2021/11/17 12:57:13;;;;;;;1.73;1.50;;;5.20;99.90;;;;;;6223850;23;20513;-85
2021/11/17 12:59:46;;;;;;;4.72;1.88;;;5.30;99.90;;;;;;6223199;23;20215;-85
2021/11/17 13:02:31;;;;;;;3.03;2.28;;;5.30;99.90;;;;;;6222930;23;20170;-85
2021/11/17 13:05:24;;;;;;;3.33;2.35;;;5.40;99.90;;;;;;6194985;23;20236;-85
2021/11/17 13:07:58;;;;;;;1.90;1.80;;;5.50;99.90;;;;;;6224714;23;20189;-85
2021/11/17 13:10:31;;;;;;;2.75;2.00;;;5.40;99.90;;;;;;6223991;23;20213;-85
2021/11/17 13:13:09;;;;;;;3.25;2.22;;;5.40;99.90;;;;;;6223131;23;20189;-85
2021/11/17 13:15:45;;;;;;;2.00;1.80;;;5.40;99.90;;;;;;6223368;23;20166;-84
2021/11/17 13:18:27;;;;;;;2.08;1.88;;;5.60;99.90;;;;;;6224343;23;20501;-85
2021/11/17 13:21:12;;;;;;;2.65;2.10;;;5.50;99.90;;;;;;6225567;23;20204;-84
2021/11/17 13:23:44;;;;;;;1.60;1.50;;;5.50;99.90;;;;;;6223467;23;20166;-85
2021/11/17 13:26:25;;;;;;;1.80;1.70;;;5.40;99.90;;;;;;6223622;23;20162;-84
2021/11/17 13:28:52;;;;;;;2.00;1.90;;;5.30;99.90;;;;;;6223334;23;20162;-84
2021/11/17 13:31:27;;;;;;;2.10;1.90;;;5.30;99.90;;;;;;6223600;23;20205;-84
2021/11/17 13:33:54;;;;;;;2.17;2.08;;;5.30;99.90;;;;;;6223233;23;20182;-85
2021/11/17 13:36:39;;;;;;;2.03;1.45;;;5.40;99.90;;;;;;6222704;23;20182;-84
2021/11/17 13:39:06;;;;;;;1.70;1.60;;;5.30;99.90;;;;;;6222565;23;20170;-84
2021/11/17 13:41:34;;;;;;;2.20;2.00;;;5.40;99.90;;;;;;6222743;23;20212;-84
2021/11/17 13:44:01;;;;;;;1.77;1.67;;;5.50;99.90;;;;;;6223304;23;20184;-85
2021/11/17 13:46:28;;;;;;;2.20;2.00;;;5.50;99.90;;;;;;6223649;23;20184;-85
2021/11/17 13:48:55;;;;;;;3.22;1.85;;;5.50;99.90;;;;;;6223246;23;20191;-85
2021/11/17 13:51:26;;;;;;;2.60;2.40;;;5.50;99.90;;;;;;6224344;23;20198;-85
2021/11/17 13:53:55;;;;;;;2.38;2.17;;;5.60;99.90;;;;;;6222930;23;20182;-84
2021/11/17 13:56:26;;;;;;;2.30;2.10;;;5.50;99.90;;;;;;6223662;23;20178;-85
2021/11/17 13:58:54;;;;;;;4.13;2.15;;;5.50;99.90;;;;;;6223903;23;20162;-83
2021/11/17 14:01:21;;;;;;;2.58;2.10;;;5.60;99.90;;;;;;6223522;23;20208;-83
2021/11/17 14:03:48;;;;;;;2.58;2.40;;;5.60;99.90;;;;;;6222970;23;20181;-84
2021/11/17 14:06:18;;;;;;;3.20;2.58;;;5.50;99.90;;;;;;6223819;23;20273;-84
2021/11/17 14:08:46;;;;;;;3.88;2.65;;;5.40;99.90;;;;;;6225690;23;20168;-84
2021/11/17 14:11:15;;;;;;;2.20;2.00;;;5.40;99.90;;;;;;6227552;23;20198;-85
2021/11/17 14:13:43;;;;;;;2.53;2.33;;;5.30;99.90;;;;;;6226216;23;20204;-85
2021/11/17 14:16:11;;;;;;;3.42;2.70;;;5.40;99.90;;;;;;6223642;23;20210;-84
2021/11/17 14:18:38;;;;;;;2.30;2.10;;;5.40;99.90;;;;;;6223270;23;20181;-85
2021/11/17 14:21:07;;;;;;;3.25;2.75;;;5.40;99.90;;;;;;6234516;23;20193;-82
2021/11/17 14:23:35;;;;;;;4.63;3.20;;;5.50;99.90;;;;;;6243768;22;20240;-80
2021/11/17 14:26:02;;;;;;;3.20;2.25;;;5.50;99.90;;;;;;6234003;23;20648;-83
2021/11/17 14:28:40;;;;;;;3.35;2.40;;;5.50;99.90;;;;;;6225165;23;20387;-84
2021/11/17 14:31:11;;;;;;;2.67;2.45;;;5.60;99.90;;;;;;6224866;23;20205;-85
2021/11/17 14:33:39;;;;;;;3.42;2.80;;;5.50;99.90;;;;;;6224262;23;20182;-85
2021/11/17 14:36:10;;;;;;;2.47;2.28;;;5.60;99.90;;;;;;6225688;23;20182;-83
2021/11/17 14:38:37;;;;;;;4.72;3.50;;;5.60;99.90;;;;;;6225367;23;20173;-85
2021/11/17 14:41:04;;;;;;;3.42;2.60;;;5.60;99.90;;;;;;6224006;23;20208;-82
2021/11/17 14:43:33;;;;;;;3.22;2.90;;;5.70;99.90;;;;;;6222048;23;20507;-82
2021/11/17 14:46:00;;;;;;;2.97;2.78;;;5.60;99.90;;;;;;6222034;23;20197;-83
2021/11/17 14:48:27;;;;;;;4.45;3.42;;;5.60;99.90;;;;;;6222719;23;20178;-82
2021/11/17 14:50:56;;;;;;;3.30;3.00;;;5.70;99.90;;;;;;6222193;23;20202;-83
2021/11/17 14:53:22;;;;;;;3.08;2.72;;;5.70;99.90;;;;;;6221360;23;20201;-83
2021/11/17 14:55:49;;;;;;;3.22;2.92;;;6.00;99.90;;;;;;6222536;23;20189;-82
2021/11/17 14:58:22;;;;;;;3.30;3.00;;;6.20;99.90;;;;;;6222356;23;20183;-83
2021/11/17 15:01:04;;;;;;;2.85;2.65;;;6.30;99.90;;;;;;6222330;23;20657;-83
2021/11/17 15:03:45;;;;;;;2.45;2.35;;;6.30;99.90;;;;;;6217689;23;20652;-83
2021/11/17 15:06:13;;;;;;;2.67;2.47;;;6.20;99.90;;;;;;6221617;23;20178;-83
2021/11/17 15:15:41;;;;;;;3.97;3.10;;;6.20;99.90;;;;;;6131171;23;20512;-82
2021/11/17 15:21:23;;;;;;;2.80;2.50;;;6.10;99.90;;;;;;6222675;23;20202;-83
2021/11/17 15:26:50;;;;;;;2.97;2.58;;;5.90;99.90;;;;;;6220759;23;20182;-83
2021/11/17 15:29:30;;;;;;;4.03;3.72;;;5.90;99.90;;;;;;6222241;23;20193;-82
2021/11/17 15:35:44;;;;;;;3.78;3.38;;;6.20;99.90;;;;;;6110044;23;20659;-83
2021/11/17 15:38:42;;;;;;;7.47;3.85;;;6.00;99.90;;;;;;6144589;23;20641;-82
2021/11/17 15:41:20;;;;;;;3.53;3.05;;;5.80;99.90;;;;;;6221916;23;20657;-82
2021/11/17 15:43:50;;;;;;;8.85;6.45;;;5.80;99.90;;;;;;6221504;23;20170;-82
2021/11/17 15:47:48;;;;;;;3.53;3.22;;;5.80;99.90;;;;;;6221074;23;20182;-80
2021/11/17 15:50:19;;;;;;;4.75;2.85;;;5.80;99.90;;;;;;6220400;23;20197;-80
2021/11/17 15:52:47;;;;;;;3.67;3.47;;;5.80;99.90;;;;;;6220585;23;20194;-80
2021/11/17 15:55:14;;;;;;;3.92;3.33;;;5.90;99.90;;;;;;6223373;23;20188;-80
2021/11/17 15:57:41;;;;;;;6.20;4.13;;;5.80;99.90;;;;;;6220269;23;20192;-81
2021/11/17 16:00:10;;;;;;;4.20;3.63;;;5.80;99.90;;;;;;6231812;23;20204;-81
2021/11/17 16:02:43;;;;;;;4.20;3.78;;;5.80;99.90;;;;;;6220625;23;20174;-85
2021/11/17 16:05:11;;;;;;;6.15;4.97;;;5.80;99.90;;;;;;6225315;23;20208;-84
2021/11/17 16:07:41;;;;;;;5.22;4.72;;;5.70;99.90;;;;;;6228211;23;20178;-86
2021/11/17 16:33:48;;;;;;;7.78;5.72;;;6.10;99.90;;;;;;6068874;23;20215;-86
2021/11/17 16:36:15;;;;;;;4.88;4.47;;;6.00;99.90;;;;;;6074810;23;20245;-87
2021/11/17 16:38:43;;;;;;;8.18;5.50;;;6.20;99.90;;;;;;6205087;23;20253;-85
2021/11/17 16:41:13;;;;;;;4.25;3.60;;;6.40;99.90;;;;;;6229197;23;20220;-86
2021/11/17 16:43:40;;;;;;;5.03;4.15;;;6.50;99.90;;;;;;6229240;23;20228;-86
2021/11/17 16:46:27;;;;;;;4.20;3.90;;;6.50;99.90;;;;;;6229444;23;20216;-86
2021/11/17 16:48:57;;;;;;;3.35;3.05;;;6.60;99.90;;;;;;6229103;23;20594;-88
2021/11/17 16:51:25;;;;;;;3.30;3.00;;;6.70;99.90;;;;;;6227867;23;20198;-88
2021/11/17 16:53:52;;;;;;;4.63;3.10;;;6.80;99.90;;;;;;6227091;23;20605;-89
2021/11/17 16:56:49;;;;;;;4.30;3.90;;;6.80;99.90;;;;;;6235754;23;20188;-89
2021/11/17 16:59:17;;;;;;;5.43;3.33;;;6.80;99.90;;;;;;6237687;23;20226;-88
2021/11/17 17:33:49;;;;;;;4.05;3.63;;;6.80;99.90;;;;;;6224131;23;20193;-85
2021/11/17 17:42:35;;;;;;;3.95;3.65;;;6.80;99.90;;;;;;6214037;23;20189;-84
2021/11/17 17:45:04;;;;;;;3.13;2.92;;;6.70;99.90;;;;;;6222002;23;21083;-85
2021/11/17 17:47:32;;;;;;;4.63;4.22;;;6.70;99.90;;;;;;6222374;23;20177;-85
2021/11/17 17:49:59;;;;;;;4.88;4.47;;;6.80;99.90;;;;;;6221642;23;20208;-85
2021/11/17 17:52:27;;;;;;;4.35;3.95;;;6.70;99.90;;;;;;6222972;23;20184;-84
2021/11/17 17:54:56;;;;;;;6.15;3.80;;;6.70;99.90;;;;;;6224199;23;20277;-85
2021/11/17 17:57:23;;;;;;;4.40;3.72;;;6.60;99.90;;;;;;6224037;23;20192;-86
2021/11/17 17:59:50;;;;;;;5.50;5.00;;;6.60;99.90;;;;;;6224164;23;20205;-83
2021/11/17 18:02:18;;;;;;;4.43;3.97;;;6.60;99.90;;;;;;6224282;23;20513;-86
2021/11/17 18:04:45;;;;;;;4.63;4.32;;;6.70;99.90;;;;;;6226438;23;20178;-84
2021/11/17 18:07:12;;;;;;;5.68;5.28;;;6.60;99.90;;;;;;6230210;23;20180;-85
2021/11/17 18:09:39;;;;;;;8.00;7.30;;;6.50;99.90;;;;;;6226748;23;20204;-84